Time;durP1;ratioP1;P1;durP2;ratioP2;P2;SDS_P1;SDS_P2;PMS_P1;PMS_P2;Temp;Humidity;BMP_temperature;BMP_pressure;BME280_temperature;BME280_humidity;BME280_pressure;Samples;Min_cycle;Max_cycle;Signal;HPM_P1;HPM_P2
2023/08/02 00:00:35;;;;;;;1.05;0.95;;;;;;;;;;5070678;28;20028;-83
2023/08/02 00:03:00;;;;;;;0.77;0.70;;;;;;;;;;5067848;28;20497;-83
2023/08/02 00:05:26;;;;;;;2.03;1.42;;;;;;;;;;5071109;28;20029;-84
2023/08/02 00:07:51;;;;;;;1.00;0.80;;;;;;;;;;5069831;28;20021;-82
2023/08/02 00:10:17;;;;;;;0.82;0.77;;;;;;;;;;5071533;28;20488;-83
2023/08/02 00:12:42;;;;;;;2.00;1.30;;;;;;;;;;5069878;28;20032;-82
2023/08/02 00:15:08;;;;;;;1.15;0.93;;;;;;;;;;5070806;28;20024;-82
2023/08/02 00:17:34;;;;;;;1.83;1.33;;;;;;;;;;5071500;28;20487;-82
2023/08/02 00:19:59;;;;;;;2.28;1.48;;;;;;;;;;5069704;28;20025;-82
2023/08/02 00:22:25;;;;;;;1.45;1.15;;;;;;;;;;5069447;28;20043;-82
2023/08/02 00:24:50;;;;;;;1.20;0.88;;;;;;;;;;5074015;28;20398;-82
2023/08/02 00:27:16;;;;;;;1.98;0.82;;;;;;;;;;5073637;28;20032;-83
2023/08/02 00:29:41;;;;;;;1.65;1.27;;;;;;;;;;5074941;28;20039;-83
2023/08/02 00:32:07;;;;;;;1.80;1.38;;;;;;;;;;5071498;28;20017;-82
2023/08/02 00:34:32;;;;;;;1.40;1.17;;;;;;;;;;5071664;28;20028;-84
2023/08/02 00:36:58;;;;;;;2.20;1.40;;;;;;;;;;5067677;28;20035;-82
2023/08/02 00:39:23;;;;;;;1.58;1.45;;;;;;;;;;5068199;28;20028;-82
2023/08/02 00:41:49;;;;;;;1.23;0.98;;;;;;;;;;5072215;28;20674;-84
2023/08/02 00:44:14;;;;;;;1.58;1.27;;;;;;;;;;5071184;28;20028;-84
2023/08/02 00:46:40;;;;;;;1.75;1.13;;;;;;;;;;5070513;28;20062;-85
2023/08/02 00:49:05;;;;;;;0.85;0.82;;;;;;;;;;5071268;28;20032;-84
2023/08/02 00:51:33;;;;;;;1.63;1.27;;;;;;;;;;5072167;28;20117;-82
2023/08/02 00:54:02;;;;;;;1.85;1.38;;;;;;;;;;5074934;28;20017;-83
2023/08/02 00:56:31;;;;;;;1.77;1.30;;;;;;;;;;5073750;28;20487;-82
2023/08/02 00:58:57;;;;;;;1.23;1.13;;;;;;;;;;5075230;28;20491;-82
2023/08/02 01:01:24;;;;;;;2.25;1.20;;;;;;;;;;5072831;28;20028;-81
2023/08/02 01:03:50;;;;;;;2.30;1.40;;;;;;;;;;5073237;28;20032;-81
2023/08/02 01:06:27;;;;;;;2.03;1.38;;;;;;;;;;5074735;28;20040;-82
2023/08/02 01:09:07;;;;;;;1.55;1.17;;;;;;;;;;5068505;28;20384;-83
2023/08/02 01:11:46;;;;;;;1.88;1.25;;;;;;;;;;5070374;28;20036;-83
2023/08/02 01:14:16;;;;;;;1.20;1.10;;;;;;;;;;5074149;28;20164;-82
2023/08/02 01:16:44;;;;;;;1.48;0.88;;;;;;;;;;5072872;28;20059;-82
2023/08/02 01:19:10;;;;;;;1.23;1.13;;;;;;;;;;5072886;28;20047;-82
2023/08/02 01:21:36;;;;;;;1.48;1.10;;;;;;;;;;5072232;28;20457;-82
2023/08/02 01:24:01;;;;;;;2.38;1.02;;;;;;;;;;5073023;28;20195;-82
2023/08/02 01:26:30;;;;;;;1.77;1.42;;;;;;;;;;5067339;28;20032;-83
2023/08/02 01:29:01;;;;;;;0.90;0.90;;;;;;;;;;5070453;28;20039;-84
2023/08/02 01:31:28;;;;;;;2.92;2.00;;;;;;;;;;5072620;28;20094;-81
2023/08/02 01:33:56;;;;;;;2.00;1.50;;;;;;;;;;5070831;28;20059;-82
2023/08/02 01:36:22;;;;;;;1.83;1.38;;;;;;;;;;5071705;28;20055;-82
2023/08/02 01:38:48;;;;;;;2.72;1.15;;;;;;;;;;5072412;28;20028;-81
2023/08/02 01:41:13;;;;;;;1.52;1.13;;;;;;;;;;5072535;28;21583;-81
2023/08/02 01:43:38;;;;;;;2.15;1.38;;;;;;;;;;5069114;28;20421;-81
2023/08/02 01:46:04;;;;;;;1.55;1.33;;;;;;;;;;5073873;28;20033;-82
2023/08/02 01:48:29;;;;;;;1.17;0.82;;;;;;;;;;5071703;28;20036;-82
2023/08/02 01:50:56;;;;;;;2.00;1.48;;;;;;;;;;5072689;28;20017;-81
2023/08/02 01:53:21;;;;;;;2.60;1.15;;;;;;;;;;5072434;28;20396;-83
2023/08/02 01:55:47;;;;;;;0.80;0.77;;;;;;;;;;5072893;28;20037;-81
2023/08/02 01:58:12;;;;;;;1.17;1.00;;;;;;;;;;5069690;28;20060;-81
2023/08/02 02:00:38;;;;;;;3.45;1.67;;;;;;;;;;5071716;28;20039;-81
2023/08/02 02:03:03;;;;;;;2.05;1.23;;;;;;;;;;5071008;28;20024;-82
2023/08/02 02:05:28;;;;;;;2.05;1.10;;;;;;;;;;5071408;28;20032;-82
2023/08/02 02:07:54;;;;;;;2.20;1.55;;;;;;;;;;5072194;28;20048;-81
2023/08/02 02:10:19;;;;;;;1.95;1.45;;;;;;;;;;5072515;28;20387;-82
2023/08/02 02:12:45;;;;;;;1.40;1.13;;;;;;;;;;5072107;28;20016;-82
2023/08/02 02:15:11;;;;;;;2.38;1.10;;;;;;;;;;5070435;28;20024;-82
2023/08/02 02:17:36;;;;;;;1.58;1.25;;;;;;;;;;5071767;28;20048;-83
2023/08/02 02:20:02;;;;;;;1.75;1.40;;;;;;;;;;5070927;28;20028;-82
2023/08/02 02:22:27;;;;;;;2.15;1.67;;;;;;;;;;5072297;28;20020;-82
2023/08/02 02:24:53;;;;;;;2.13;1.40;;;;;;;;;;5072325;28;20051;-82
2023/08/02 02:27:18;;;;;;;3.20;1.67;;;;;;;;;;5071379;28;20447;-83
2023/08/02 02:29:44;;;;;;;1.65;1.20;;;;;;;;;;5071953;28;20024;-83
2023/08/02 02:32:09;;;;;;;1.92;1.50;;;;;;;;;;5069445;28;20048;-82
2023/08/02 02:34:35;;;;;;;1.45;1.27;;;;;;;;;;5070429;28;20028;-82
2023/08/02 02:37:00;;;;;;;2.42;1.48;;;;;;;;;;5070504;28;20067;-82
2023/08/02 02:39:26;;;;;;;2.90;2.53;;;;;;;;;;5068703;28;20035;-83
2023/08/02 02:41:51;;;;;;;1.73;1.15;;;;;;;;;;5070230;28;20031;-83
2023/08/02 02:44:17;;;;;;;1.20;1.10;;;;;;;;;;5068376;28;20033;-82
2023/08/02 02:46:42;;;;;;;1.98;1.42;;;;;;;;;;5068496;28;20025;-81
2023/08/02 02:49:08;;;;;;;1.25;1.15;;;;;;;;;;5068233;28;20033;-82
2023/08/02 02:51:33;;;;;;;1.55;1.40;;;;;;;;;;5070412;28;20058;-84
2023/08/02 02:53:59;;;;;;;1.73;1.50;;;;;;;;;;5070420;28;20029;-83
2023/08/02 02:56:24;;;;;;;1.30;1.10;;;;;;;;;;5068352;28;20461;-82
2023/08/02 02:58:50;;;;;;;2.65;1.88;;;;;;;;;;5071339;28;20024;-82
2023/08/02 03:01:15;;;;;;;2.20;1.58;;;;;;;;;;5067759;28;20036;-84
2023/08/02 03:03:41;;;;;;;1.73;1.38;;;;;;;;;;5069099;28;20024;-82
2023/08/02 03:06:06;;;;;;;2.83;1.77;;;;;;;;;;5068484;28;20028;-84
2023/08/02 03:08:32;;;;;;;3.70;2.42;;;;;;;;;;5069494;28;20036;-83
2023/08/02 03:10:57;;;;;;;3.30;2.00;;;;;;;;;;5067986;28;20060;-82
2023/08/02 03:13:23;;;;;;;2.05;1.38;;;;;;;;;;5068932;28;20113;-82
2023/08/02 03:15:48;;;;;;;2.58;1.80;;;;;;;;;;5069398;28;20099;-83
2023/08/02 03:18:14;;;;;;;2.42;1.75;;;;;;;;;;5069821;28;20052;-81
2023/08/02 03:20:39;;;;;;;4.10;2.15;;;;;;;;;;5069931;28;20051;-83
2023/08/02 03:23:05;;;;;;;2.65;2.05;;;;;;;;;;5069292;28;20068;-83
2023/08/02 03:25:31;;;;;;;2.20;1.33;;;;;;;;;;5069719;28;20082;-81
2023/08/02 03:27:56;;;;;;;1.17;1.05;;;;;;;;;;5070191;28;20369;-81
2023/08/02 03:30:22;;;;;;;2.10;1.35;;;;;;;;;;5068294;28;20036;-81
2023/08/02 03:32:47;;;;;;;4.00;1.95;;;;;;;;;;5067833;28;20024;-82
2023/08/02 03:35:13;;;;;;;1.75;1.17;;;;;;;;;;5070411;28;20024;-82
2023/08/02 03:37:38;;;;;;;2.25;1.48;;;;;;;;;;5068821;28;20032;-82
2023/08/02 03:40:04;;;;;;;1.63;1.17;;;;;;;;;;5074548;28;20119;-82
2023/08/02 03:42:30;;;;;;;1.33;1.08;;;;;;;;;;5071982;28;20384;-84
2023/08/02 03:44:55;;;;;;;1.48;1.05;;;;;;;;;;5074134;28;20021;-82
2023/08/02 03:47:21;;;;;;;3.58;2.03;;;;;;;;;;5072822;28;20035;-82
2023/08/02 03:49:46;;;;;;;1.60;1.27;;;;;;;;;;5073034;28;20043;-82
2023/08/02 03:52:12;;;;;;;1.65;1.13;;;;;;;;;;5072254;28;20028;-81
2023/08/02 03:54:38;;;;;;;1.92;1.48;;;;;;;;;;5071451;28;20158;-83
2023/08/02 03:57:04;;;;;;;2.72;1.67;;;;;;;;;;5073243;28;20074;-81
2023/08/02 03:59:29;;;;;;;1.50;1.30;;;;;;;;;;5072729;28;20035;-81
2023/08/02 04:01:54;;;;;;;1.55;1.42;;;;;;;;;;5071978;28;20020;-84
2023/08/02 04:04:21;;;;;;;2.25;1.42;;;;;;;;;;5075215;28;20029;-82
2023/08/02 04:06:46;;;;;;;2.60;1.63;;;;;;;;;;5072630;28;20116;-82
2023/08/02 04:09:12;;;;;;;2.65;2.20;;;;;;;;;;5072200;28;20536;-84
2023/08/02 04:11:37;;;;;;;3.63;1.65;;;;;;;;;;5072193;28;20030;-85
2023/08/02 04:14:03;;;;;;;1.60;1.48;;;;;;;;;;5067724;28;20020;-83
2023/08/02 04:16:28;;;;;;;2.60;1.60;;;;;;;;;;5070059;28;20048;-86
2023/08/02 04:18:54;;;;;;;1.23;0.95;;;;;;;;;;5074329;28;20024;-84
2023/08/02 04:21:19;;;;;;;2.47;1.35;;;;;;;;;;5072831;28;20031;-86
2023/08/02 04:23:48;;;;;;;2.13;1.58;;;;;;;;;;5072235;28;20021;-83
2023/08/02 04:26:13;;;;;;;1.33;0.98;;;;;;;;;;5072847;28;20054;-83
2023/08/02 04:28:39;;;;;;;1.08;0.98;;;;;;;;;;5071056;28;20108;-83
2023/08/02 04:31:04;;;;;;;2.65;1.65;;;;;;;;;;5068585;28;20028;-81
2023/08/02 04:33:30;;;;;;;2.22;1.63;;;;;;;;;;5068575;28;20035;-82
2023/08/02 04:35:59;;;;;;;1.70;1.45;;;;;;;;;;5070718;28;20029;-80
2023/08/02 04:38:25;;;;;;;2.17;1.92;;;;;;;;;;5068755;28;20036;-84
2023/08/02 04:40:51;;;;;;;1.55;1.08;;;;;;;;;;5070114;28;20159;-83
2023/08/02 04:43:16;;;;;;;2.72;1.80;;;;;;;;;;5068979;28;20067;-81
2023/08/02 04:45:42;;;;;;;1.60;1.48;;;;;;;;;;5069128;28;20032;-81
2023/08/02 04:48:08;;;;;;;2.45;1.80;;;;;;;;;;5065416;28;20455;-84
2023/08/02 04:50:34;;;;;;;2.53;1.98;;;;;;;;;;5066595;28;20032;-81
2023/08/02 04:53:02;;;;;;;6.70;1.42;;;;;;;;;;5065286;28;20518;-82
2023/08/02 04:55:28;;;;;;;1.77;1.40;;;;;;;;;;5064258;28;20090;-82
2023/08/02 04:57:53;;;;;;;1.92;1.52;;;;;;;;;;5063779;28;20482;-82
2023/08/02 05:00:19;;;;;;;3.10;1.75;;;;;;;;;;5062340;28;20025;-82
2023/08/02 05:02:45;;;;;;;3.80;2.50;;;;;;;;;;5068628;28;20024;-82
2023/08/02 05:05:11;;;;;;;2.50;1.77;;;;;;;;;;5067701;28;20146;-85
2023/08/02 05:07:37;;;;;;;3.20;1.67;;;;;;;;;;5066180;28;20120;-83
2023/08/02 05:10:05;;;;;;;2.90;1.85;;;;;;;;;;5066402;28;20426;-81
2023/08/02 05:12:35;;;;;;;2.28;1.92;;;;;;;;;;5064721;28;20338;-82
2023/08/02 05:15:01;;;;;;;1.92;1.48;;;;;;;;;;5059638;28;20028;-83
2023/08/02 05:17:29;;;;;;;1.95;1.60;;;;;;;;;;5062775;28;20056;-85
2023/08/02 05:19:54;;;;;;;2.00;1.38;;;;;;;;;;5064955;28;20032;-85
2023/08/02 05:22:20;;;;;;;1.25;1.15;;;;;;;;;;5062750;28;20032;-85
2023/08/02 05:24:45;;;;;;;1.38;1.15;;;;;;;;;;5062533;28;20064;-85
2023/08/02 05:27:11;;;;;;;4.88;1.42;;;;;;;;;;5062230;28;20055;-85
2023/08/02 05:29:36;;;;;;;2.33;1.23;;;;;;;;;;5062764;28;20056;-86
2023/08/02 05:32:02;;;;;;;1.48;1.15;;;;;;;;;;5065388;28;20020;-83
2023/08/02 05:34:27;;;;;;;2.85;1.80;;;;;;;;;;5067845;28;20020;-84
2023/08/02 05:36:52;;;;;;;3.22;2.03;;;;;;;;;;5069487;28;20075;-84
2023/08/02 05:39:18;;;;;;;4.03;2.25;;;;;;;;;;5068257;28;20427;-85
2023/08/02 05:41:43;;;;;;;2.40;1.63;;;;;;;;;;5070088;28;20464;-82
2023/08/02 05:44:09;;;;;;;2.40;1.80;;;;;;;;;;5073239;28;20085;-84
2023/08/02 05:46:34;;;;;;;1.70;1.17;;;;;;;;;;5074203;28;20028;-83
2023/08/02 05:49:00;;;;;;;3.03;1.77;;;;;;;;;;5069932;28;20054;-83
2023/08/02 05:51:25;;;;;;;1.45;1.15;;;;;;;;;;5069385;28;20020;-83
2023/08/02 05:53:50;;;;;;;2.85;1.98;;;;;;;;;;5071476;28;20017;-85
2023/08/02 05:56:16;;;;;;;2.45;1.73;;;;;;;;;;5076399;28;20123;-83
2023/08/02 05:58:41;;;;;;;3.47;1.95;;;;;;;;;;5071119;28;20021;-82
2023/08/02 06:01:07;;;;;;;6.40;2.92;;;;;;;;;;5070840;28;20484;-81
2023/08/02 06:03:32;;;;;;;2.85;2.28;;;;;;;;;;5073368;28;20370;-82
2023/08/02 06:05:58;;;;;;;5.35;2.38;;;;;;;;;;5071219;28;20028;-83
2023/08/02 06:08:23;;;;;;;3.20;2.25;;;;;;;;;;5072867;28;20161;-83
2023/08/02 06:10:49;;;;;;;2.08;1.73;;;;;;;;;;5070925;28;20408;-83
2023/08/02 06:13:14;;;;;;;2.40;1.67;;;;;;;;;;5072636;28;20020;-82
2023/08/02 06:15:40;;;;;;;1.63;1.20;;;;;;;;;;5070085;28;20058;-84
2023/08/02 06:18:05;;;;;;;2.63;2.13;;;;;;;;;;5068860;28;20040;-83
2023/08/02 06:20:30;;;;;;;1.95;1.63;;;;;;;;;;5070818;28;20129;-83
2023/08/02 06:22:56;;;;;;;2.78;2.17;;;;;;;;;;5066731;28;20433;-85
2023/08/02 06:25:22;;;;;;;2.72;1.73;;;;;;;;;;5064960;28;20028;-83
2023/08/02 06:27:47;;;;;;;4.10;1.63;;;;;;;;;;5065268;28;20166;-85
2023/08/02 06:30:14;;;;;;;2.53;2.13;;;;;;;;;;5066444;28;20049;-84
2023/08/02 06:32:39;;;;;;;2.42;1.77;;;;;;;;;;5068206;28;20020;-84
2023/08/02 06:35:05;;;;;;;2.60;1.42;;;;;;;;;;5070961;28;20039;-83
2023/08/02 06:37:31;;;;;;;2.60;2.08;;;;;;;;;;5072607;28;20029;-84
2023/08/02 06:39:56;;;;;;;2.63;2.20;;;;;;;;;;5071166;28;20043;-83
2023/08/02 06:42:22;;;;;;;3.75;2.28;;;;;;;;;;5069751;28;20028;-84
2023/08/02 06:44:47;;;;;;;2.80;1.85;;;;;;;;;;5067565;28;20024;-83
2023/08/02 06:47:12;;;;;;;1.75;1.45;;;;;;;;;;5082469;28;20560;-83
2023/08/02 06:49:38;;;;;;;2.83;2.13;;;;;;;;;;5067967;28;20427;-84
2023/08/02 06:52:04;;;;;;;2.33;1.67;;;;;;;;;;5067801;28;20025;-85
2023/08/02 06:54:29;;;;;;;2.17;1.70;;;;;;;;;;5068064;28;20025;-84
2023/08/02 06:56:55;;;;;;;3.60;2.22;;;;;;;;;;5065200;28;20111;-84
2023/08/02 06:59:20;;;;;;;2.97;1.90;;;;;;;;;;5067290;28;20055;-85
2023/08/02 07:01:45;;;;;;;3.25;2.28;;;;;;;;;;5067175;28;20433;-83
2023/08/02 07:04:11;;;;;;;3.30;2.28;;;;;;;;;;5095300;28;20884;-84
2023/08/02 07:06:36;;;;;;;2.10;1.55;;;;;;;;;;5066313;28;20039;-84
2023/08/02 07:09:02;;;;;;;3.65;2.65;;;;;;;;;;5067218;28;20028;-84
2023/08/02 07:11:27;;;;;;;2.15;1.40;;;;;;;;;;5066244;28;20033;-84
2023/08/02 07:13:53;;;;;;;4.55;2.17;;;;;;;;;;5063291;28;20385;-83
2023/08/02 07:16:18;;;;;;;2.67;1.92;;;;;;;;;;5063660;28;20391;-83
2023/08/02 07:18:44;;;;;;;3.50;2.72;;;;;;;;;;5067714;28;21370;-83
2023/08/02 07:21:10;;;;;;;2.92;2.00;;;;;;;;;;5066010;28;20406;-83
2023/08/02 07:23:36;;;;;;;3.40;2.55;;;;;;;;;;5066350;28;20028;-83
2023/08/02 07:26:05;;;;;;;8.93;2.63;;;;;;;;;;5064016;28;20610;-82
2023/08/02 07:28:31;;;;;;;2.47;1.85;;;;;;;;;;5062950;28;20802;-83
2023/08/02 07:31:07;;;;;;;2.70;1.83;;;;;;;;;;5063233;28;20066;-84
2023/08/02 07:33:33;;;;;;;3.45;2.50;;;;;;;;;;5067675;28;20025;-83
2023/08/02 07:35:58;;;;;;;3.22;2.47;;;;;;;;;;5066196;28;20041;-80
2023/08/02 07:38:24;;;;;;;2.13;1.67;;;;;;;;;;5061614;28;20032;-79
2023/08/02 07:40:50;;;;;;;3.60;2.45;;;;;;;;;;5062179;28;20032;-79
2023/08/02 07:43:15;;;;;;;2.67;1.65;;;;;;;;;;5062943;28;20076;-78
2023/08/02 07:45:41;;;;;;;5.57;2.65;;;;;;;;;;5064774;28;20024;-78
2023/08/02 07:48:06;;;;;;;4.30;2.80;;;;;;;;;;5071081;28;20020;-79
2023/08/02 07:50:32;;;;;;;3.80;2.28;;;;;;;;;;5068999;28;20024;-79
2023/08/02 07:52:57;;;;;;;2.60;1.80;;;;;;;;;;5063741;28;20052;-79
2023/08/02 07:55:23;;;;;;;4.35;2.47;;;;;;;;;;5061052;28;20050;-79
2023/08/02 07:57:49;;;;;;;3.15;1.98;;;;;;;;;;5064418;28;20028;-79
2023/08/02 08:00:15;;;;;;;2.00;1.67;;;;;;;;;;5064334;28;20028;-80
2023/08/02 08:02:40;;;;;;;2.55;1.92;;;;;;;;;;5063868;28;20530;-80
2023/08/02 08:05:07;;;;;;;2.72;2.15;;;;;;;;;;5065394;28;20033;-80
2023/08/02 08:07:32;;;;;;;2.83;2.15;;;;;;;;;;5065227;28;20040;-80
2023/08/02 08:09:58;;;;;;;3.95;2.30;;;;;;;;;;5069001;28;20020;-81
2023/08/02 08:12:25;;;;;;;2.63;1.95;;;;;;;;;;5072556;28;20063;-81
2023/08/02 08:14:50;;;;;;;2.10;1.70;;;;;;;;;;5066561;28;20029;-80
2023/08/02 08:17:16;;;;;;;2.50;1.88;;;;;;;;;;5069094;28;20052;-81
2023/08/02 08:19:43;;;;;;;2.53;1.92;;;;;;;;;;5064434;28;20029;-83
2023/08/02 08:22:08;;;;;;;3.17;1.75;;;;;;;;;;5074435;28;20028;-82
2023/08/02 08:24:34;;;;;;;3.28;1.90;;;;;;;;;;5068563;28;20422;-79
2023/08/02 08:26:59;;;;;;;2.63;1.77;;;;;;;;;;5069369;28;20086;-79
2023/08/02 08:29:26;;;;;;;2.00;1.45;;;;;;;;;;5071052;28;20035;-79
2023/08/02 08:31:53;;;;;;;1.70;1.30;;;;;;;;;;5067763;28;20020;-79
2023/08/02 08:34:18;;;;;;;1.23;1.02;;;;;;;;;;5070087;28;20020;-78
2023/08/02 08:36:44;;;;;;;2.50;1.38;;;;;;;;;;5069723;28;20039;-77
2023/08/02 08:39:09;;;;;;;2.55;1.40;;;;;;;;;;5070257;28;20103;-80
2023/08/02 08:41:35;;;;;;;0.93;0.68;;;;;;;;;;5069859;28;20107;-79
2023/08/02 08:44:01;;;;;;;1.27;1.13;;;;;;;;;;5069989;28;20020;-79
2023/08/02 08:46:31;;;;;;;1.75;1.38;;;;;;;;;;5069969;28;20032;-80
2023/08/02 08:48:58;;;;;;;3.28;1.15;;;;;;;;;;5068384;28;20507;-77
2023/08/02 08:51:25;;;;;;;2.17;1.70;;;;;;;;;;5069958;28;20480;-80
2023/08/02 08:53:51;;;;;;;3.50;1.67;;;;;;;;;;5069692;28;20395;-78
2023/08/02 08:56:21;;;;;;;1.23;1.13;;;;;;;;;;5069401;28;20032;-83
2023/08/02 08:58:47;;;;;;;2.35;1.30;;;;;;;;;;5068198;28;20514;-81
2023/08/02 09:01:13;;;;;;;2.10;1.45;;;;;;;;;;5065082;28;20032;-82
2023/08/02 09:03:38;;;;;;;1.08;0.95;;;;;;;;;;5067215;28;20032;-80
2023/08/02 09:06:04;;;;;;;5.90;1.90;;;;;;;;;;5066995;28;20101;-78
2023/08/02 09:08:41;;;;;;;2.13;1.27;;;;;;;;;;5067228;28;20056;-80
2023/08/02 09:11:06;;;;;;;2.00;1.65;;;;;;;;;;5068449;28;20100;-78
2023/08/02 09:13:32;;;;;;;3.65;1.52;;;;;;;;;;5069114;28;20107;-79
2023/08/02 09:16:03;;;;;;;0.63;0.60;;;;;;;;;;5072334;28;20024;-77
2023/08/02 09:18:35;;;;;;;1.85;1.50;;;;;;;;;;5071755;28;20028;-79
2023/08/02 09:21:01;;;;;;;1.25;0.93;;;;;;;;;;5070244;28;20035;-78
2023/08/02 09:23:26;;;;;;;5.97;1.75;;;;;;;;;;5072649;28;20028;-80
2023/08/02 09:25:52;;;;;;;2.15;1.30;;;;;;;;;;5071764;28;20024;-79
2023/08/02 09:28:17;;;;;;;1.55;1.15;;;;;;;;;;5072701;28;20036;-79
2023/08/02 09:30:43;;;;;;;1.48;1.17;;;;;;;;;;5072929;28;20052;-79
2023/08/02 09:33:08;;;;;;;1.27;0.98;;;;;;;;;;5073003;28;20035;-80
2023/08/02 09:36:00;;;;;;;0.95;0.82;;;;;;;;;;5072979;28;20028;-79
2023/08/02 09:38:26;;;;;;;1.05;0.90;;;;;;;;;;5070133;28;20047;-80
2023/08/02 09:40:51;;;;;;;0.88;0.63;;;;;;;;;;5073015;28;20142;-83
2023/08/02 09:43:18;;;;;;;1.00;0.68;;;;;;;;;;5071400;28;20753;-79
2023/08/02 09:45:43;;;;;;;2.13;1.48;;;;;;;;;;5071584;28;20435;-81
2023/08/02 09:48:09;;;;;;;1.50;1.10;;;;;;;;;;5071238;28;20028;-80
2023/08/02 09:50:52;;;;;;;1.38;0.90;;;;;;;;;;5074099;28;20047;-80
2023/08/02 09:53:18;;;;;;;1.48;1.00;;;;;;;;;;5072765;28;20037;-82
2023/08/02 09:55:46;;;;;;;1.48;1.08;;;;;;;;;;5070626;28;20503;-81
2023/08/02 09:58:13;;;;;;;2.45;1.67;;;;;;;;;;5071554;28;20556;-82
2023/08/02 10:00:40;;;;;;;1.10;0.93;;;;;;;;;;5073910;28;20032;-81
2023/08/02 10:03:07;;;;;;;1.48;0.88;;;;;;;;;;5075327;28;20477;-81
2023/08/02 10:05:34;;;;;;;1.08;0.82;;;;;;;;;;5074758;28;20032;-81
2023/08/02 10:08:01;;;;;;;1.70;1.42;;;;;;;;;;5075221;28;20027;-80
2023/08/02 10:10:32;;;;;;;1.08;0.60;;;;;;;;;;5072651;28;20032;-83
2023/08/02 10:13:37;;;;;;;0.85;0.65;;;;;;;;;;5069605;28;20055;-82
2023/08/02 10:16:03;;;;;;;1.92;1.25;;;;;;;;;;5049701;28;20160;-82
2023/08/02 10:18:29;;;;;;;1.27;1.02;;;;;;;;;;5067984;28;20044;-81
2023/08/02 10:20:55;;;;;;;1.30;1.10;;;;;;;;;;5070257;28;20077;-81
2023/08/02 10:23:21;;;;;;;1.52;1.05;;;;;;;;;;5076118;28;20036;-86
2023/08/02 10:25:47;;;;;;;1.40;1.02;;;;;;;;;;5074336;28;20053;-85
2023/08/02 10:28:14;;;;;;;1.27;0.85;;;;;;;;;;5075271;28;20082;-87
2023/08/02 10:30:40;;;;;;;1.58;1.23;;;;;;;;;;5073837;28;20113;-84
2023/08/02 10:33:14;;;;;;;1.48;1.08;;;;;;;;;;5072103;28;20016;-84
2023/08/02 10:36:02;;;;;;;1.65;1.30;;;;;;;;;;5073501;28;20489;-85
2023/08/02 10:38:37;;;;;;;1.20;0.93;;;;;;;;;;5073972;28;20020;-85
2023/08/02 10:41:10;;;;;;;2.28;0.93;;;;;;;;;;5072727;28;20464;-84
2023/08/02 10:43:54;;;;;;;1.10;1.00;;;;;;;;;;5072428;28;20033;-84
2023/08/02 10:46:27;;;;;;;1.73;1.10;;;;;;;;;;5069596;28;20042;-83
2023/08/02 10:49:12;;;;;;;1.00;0.82;;;;;;;;;;5067771;28;20451;-85
2023/08/02 10:51:38;;;;;;;1.52;1.10;;;;;;;;;;5072912;28;20046;-85
2023/08/02 10:54:21;;;;;;;0.77;0.57;;;;;;;;;;5072064;28;20020;-84
2023/08/02 10:56:53;;;;;;;1.27;1.00;;;;;;;;;;5073559;28;20039;-87
2023/08/02 10:59:37;;;;;;;1.60;1.13;;;;;;;;;;5075452;28;20029;-85
2023/08/02 11:02:08;;;;;;;1.90;1.13;;;;;;;;;;5070635;28;20024;-86
2023/08/02 11:04:35;;;;;;;0.85;0.70;;;;;;;;;;5070311;28;20035;-83
2023/08/02 11:07:18;;;;;;;3.05;1.30;;;;;;;;;;5072374;28;20028;-86
2023/08/02 11:09:51;;;;;;;1.40;0.93;;;;;;;;;;5073154;28;20024;-85
2023/08/02 11:12:18;;;;;;;1.65;1.15;;;;;;;;;;5069837;28;20032;-85
2023/08/02 11:14:49;;;;;;;0.77;0.73;;;;;;;;;;5069805;28;20036;-84
2023/08/02 11:17:16;;;;;;;2.33;1.52;;;;;;;;;;5070276;28;20181;-85
2023/08/02 11:19:47;;;;;;;0.65;0.52;;;;;;;;;;5071560;28;20028;-84
2023/08/02 11:22:12;;;;;;;6.22;1.50;;;;;;;;;;5072028;28;20024;-86
2023/08/02 11:24:50;;;;;;;2.95;1.95;;;;;;;;;;5073383;28;20094;-85
2023/08/02 11:27:23;;;;;;;0.77;0.65;;;;;;;;;;5075492;28;20084;-87
2023/08/02 11:30:07;;;;;;;1.95;1.73;;;;;;;;;;5069080;28;20123;-84
2023/08/02 11:32:34;;;;;;;1.48;1.00;;;;;;;;;;5072183;28;20024;-85
2023/08/02 11:35:00;;;;;;;1.35;1.25;;;;;;;;;;5071801;28;20070;-82
2023/08/02 11:37:27;;;;;;;1.98;1.38;;;;;;;;;;5069931;28;20032;-86
2023/08/02 11:39:58;;;;;;;1.08;0.98;;;;;;;;;;5074313;28;20035;-84
2023/08/02 11:42:25;;;;;;;1.02;0.93;;;;;;;;;;5072021;28;20020;-86
2023/08/02 11:44:51;;;;;;;0.85;0.82;;;;;;;;;;5076303;28;20063;-82
2023/08/02 11:47:16;;;;;;;1.88;1.27;;;;;;;;;;5073815;28;20066;-85
2023/08/02 11:49:56;;;;;;;1.23;1.00;;;;;;;;;;5074052;28;20028;-84
2023/08/02 11:52:28;;;;;;;;;;;;;;;;;;5074656;28;20036;-85
2023/08/02 11:54:54;;;;;;;2.33;1.50;;;;;;;;;;5073856;28;20272;-86
2023/08/02 11:57:24;;;;;;;0.73;0.70;;;;;;;;;;5074781;28;20533;-85
2023/08/02 11:59:52;;;;;;;1.77;0.88;;;;;;;;;;5074613;28;20381;-83
2023/08/02 12:02:31;;;;;;;2.70;1.83;;;;;;;;;;5072395;28;20042;-88
2023/08/02 12:04:57;;;;;;;1.15;1.00;;;;;;;;;;5074524;28;20033;-86
2023/08/02 12:07:30;;;;;;;1.15;0.90;;;;;;;;;;5072209;28;20032;-84
2023/08/02 12:09:56;;;;;;;1.95;1.10;;;;;;;;;;5077157;28;20078;-84
2023/08/02 12:12:30;;;;;;;2.38;1.50;;;;;;;;;;5078196;28;20041;-86
2023/08/02 12:14:56;;;;;;;2.25;1.52;;;;;;;;;;5076892;28;20021;-84
2023/08/02 12:17:23;;;;;;;1.60;1.25;;;;;;;;;;5072440;28;20358;-84
2023/08/02 12:19:49;;;;;;;1.58;0.98;;;;;;;;;;5075460;28;20111;-85
2023/08/02 12:22:16;;;;;;;1.30;0.93;;;;;;;;;;5071194;28;20028;-83
2023/08/02 12:24:42;;;;;;;1.17;0.93;;;;;;;;;;5071215;28;20108;-88
2023/08/02 12:27:25;;;;;;;2.70;1.40;;;;;;;;;;5069328;28;20471;-84
2023/08/02 12:30:07;;;;;;;2.55;1.45;;;;;;;;;;5071415;28;20473;-84
2023/08/02 12:32:32;;;;;;;2.30;1.38;;;;;;;;;;5069717;28;20403;-84
2023/08/02 12:35:05;;;;;;;2.17;1.35;;;;;;;;;;5071053;28;20038;-84
2023/08/02 12:37:31;;;;;;;1.40;1.23;;;;;;;;;;5066966;28;20473;-83
2023/08/02 12:39:56;;;;;;;1.40;1.10;;;;;;;;;;5069179;28;20029;-85
2023/08/02 12:42:22;;;;;;;1.40;1.00;;;;;;;;;;5069099;28;20085;-83
2023/08/02 12:44:47;;;;;;;1.40;0.93;;;;;;;;;;5069535;28;20067;-86
2023/08/02 12:47:13;;;;;;;2.45;1.10;;;;;;;;;;5071465;28;20087;-84
2023/08/02 12:49:38;;;;;;;1.90;1.33;;;;;;;;;;5071153;28;20029;-84
2023/08/02 12:52:04;;;;;;;1.98;1.10;;;;;;;;;;5074111;28;20029;-84
2023/08/02 12:54:30;;;;;;;2.42;1.25;;;;;;;;;;5072329;28;20029;-83
2023/08/02 12:56:55;;;;;;;1.80;0.98;;;;;;;;;;5076225;28;20028;-87
2023/08/02 12:59:21;;;;;;;1.92;1.30;;;;;;;;;;5073881;28;20392;-86
2023/08/02 13:01:47;;;;;;;2.05;1.38;;;;;;;;;;5073908;28;20556;-84
2023/08/02 13:04:12;;;;;;;1.60;1.40;;;;;;;;;;5072151;28;20024;-86
2023/08/02 13:06:37;;;;;;;3.05;1.23;;;;;;;;;;5066864;28;20048;-85
2023/08/02 13:09:03;;;;;;;1.45;1.13;;;;;;;;;;5070584;28;20016;-89
2023/08/02 13:11:28;;;;;;;1.40;1.00;;;;;;;;;;5074100;28;20059;-84
2023/08/02 13:13:54;;;;;;;1.95;1.70;;;;;;;;;;5067361;28;20024;-86
2023/08/02 13:16:19;;;;;;;1.35;1.00;;;;;;;;;;5070932;28;20058;-88
2023/08/02 13:18:45;;;;;;;0.90;0.70;;;;;;;;;;5067855;28;20075;-87
2023/08/02 13:21:10;;;;;;;1.15;0.85;;;;;;;;;;5067654;28;20116;-86
2023/08/02 13:23:36;;;;;;;1.75;1.10;;;;;;;;;;5071686;28;20036;-87
2023/08/02 13:26:03;;;;;;;1.15;0.85;;;;;;;;;;5074446;28;20059;-84
2023/08/02 13:28:29;;;;;;;2.40;1.45;;;;;;;;;;5068811;28;20535;-88
2023/08/02 13:30:58;;;;;;;1.63;1.23;;;;;;;;;;5066852;28;20147;-86
2023/08/02 13:33:25;;;;;;;2.10;1.38;;;;;;;;;;5069746;28;20091;-85
2023/08/02 13:35:50;;;;;;;2.03;1.20;;;;;;;;;;5068778;28;20477;-85
2023/08/02 13:38:16;;;;;;;1.27;0.80;;;;;;;;;;5070637;28;20024;-87
2023/08/02 13:40:42;;;;;;;1.50;1.10;;;;;;;;;;5070704;28;20033;-85
2023/08/02 13:43:07;;;;;;;1.35;1.02;;;;;;;;;;5069536;28;20073;-84
2023/08/02 13:45:33;;;;;;;2.53;1.52;;;;;;;;;;5068572;28;20025;-84
2023/08/02 13:47:58;;;;;;;2.63;1.75;;;;;;;;;;5072103;28;20426;-84
2023/08/02 13:50:24;;;;;;;1.67;1.00;;;;;;;;;;5073917;28;20020;-84
2023/08/02 13:52:49;;;;;;;2.08;1.30;;;;;;;;;;5071024;28;20377;-84
2023/08/02 13:55:14;;;;;;;1.90;1.35;;;;;;;;;;5072083;28;20024;-85
2023/08/02 13:57:40;;;;;;;2.38;1.55;;;;;;;;;;5073634;28;20468;-84
2023/08/02 14:00:06;;;;;;;1.90;1.02;;;;;;;;;;5068537;28;20035;-81
2023/08/02 14:02:32;;;;;;;2.85;1.73;;;;;;;;;;5072500;28;20024;-86
2023/08/02 14:04:57;;;;;;;2.03;1.35;;;;;;;;;;5071966;28;20029;-85
2023/08/02 14:07:23;;;;;;;2.70;1.50;;;;;;;;;;5073867;28;20105;-84
2023/08/02 14:09:48;;;;;;;2.05;1.20;;;;;;;;;;5074234;28;20024;-86
2023/08/02 14:12:14;;;;;;;1.27;0.88;;;;;;;;;;5074226;28;20364;-87
2023/08/02 14:14:43;;;;;;;3.00;1.48;;;;;;;;;;5074051;28;20070;-86
2023/08/02 14:17:08;;;;;;;6.18;2.15;;;;;;;;;;5074138;28;20046;-86
2023/08/02 14:19:34;;;;;;;3.28;1.73;;;;;;;;;;5073845;28;20540;-87
2023/08/02 14:21:59;;;;;;;2.05;1.70;;;;;;;;;;5074292;28;20503;-86
2023/08/02 14:24:25;;;;;;;2.67;2.03;;;;;;;;;;5073820;28;20492;-86
2023/08/02 14:26:51;;;;;;;2.90;1.40;;;;;;;;;;5073925;28;20021;-89
2023/08/02 14:29:16;;;;;;;1.17;0.90;;;;;;;;;;5073856;28;20422;-87
2023/08/02 14:31:42;;;;;;;1.88;1.42;;;;;;;;;;5070415;28;20021;-86
2023/08/02 14:34:07;;;;;;;2.10;1.55;;;;;;;;;;5073535;28;20043;-85
2023/08/02 14:36:33;;;;;;;2.65;1.42;;;;;;;;;;5075410;28;20492;-85
2023/08/02 14:38:58;;;;;;;1.73;1.20;;;;;;;;;;5074000;28;20024;-87
2023/08/02 14:41:24;;;;;;;2.10;1.10;;;;;;;;;;5073228;28;20037;-85